Terminal Aerodrome Forecast
Issued by NWS

Home | Current Version | Previous Version | Text Only | Print | Product List | Glossary On
Versions: 1 2 3 4 5 6 7 8 9 10 11 12 13 14 15 16 17 18 19
597
FTUS46 KLOX 172359
TAFVNY
TAF
KVNY 172359Z 1800/1824 16005KT P6SM BKN250
     FM180200 34005KT P6SM BKN250
     FM181100 12003KT P6SM FEW003 OVC250
     FM181400 VRB03KT 6SM BR BKN007 OVC250
     FM182100 16008KT P6SM SCT012 BKN150=

USA.gov is the U.S. government's official web portal to all federal, state and local government web resources and services.